Time;durP1;ratioP1;P1;durP2;ratioP2;P2;SDS_P1;SDS_P2;PMS_P1;PMS_P2;Temp;Humidity;BMP_temperature;BMP_pressure;BME280_temperature;BME280_humidity;BME280_pressure;Samples;Min_cycle;Max_cycle;Signal;HPM_P1;HPM_P2
2021/03/23 00:00:45;;;;;;;72.60;41.85;;;128.70;2252.80;;;;;;5013968;28;20053;-64
2021/03/23 00:03:14;;;;;;;75.00;43.28;;;128.50;2252.80;;;;;;5013528;28;20050;-64
2021/03/23 00:05:40;;;;;;;76.43;42.17;;;128.40;2252.80;;;;;;5013890;28;20369;-66
2021/03/23 00:08:30;;;;;;;63.40;38.90;;;128.30;2252.80;;;;;;5013932;28;20033;-64
2021/03/23 00:10:58;;;;;;;62.92;40.00;;;128.40;2252.80;;;;;;5001179;28;20050;-65
2021/03/23 00:13:27;;;;;;;56.45;35.22;;;128.20;2252.80;;;;;;5013636;28;20036;-64
2021/03/23 00:15:53;;;;;;;52.33;33.67;;;128.10;2252.80;;;;;;5000043;28;20023;-64
2021/03/23 00:18:19;;;;;;;51.35;33.17;;;128.10;2252.80;;;;;;5013506;28;20026;-63
2021/03/23 00:20:45;;;;;;;54.83;34.75;;;128.00;2252.80;;;;;;5013417;28;20029;-65
2021/03/23 00:23:12;;;;;;;47.92;32.25;;;128.10;2252.80;;;;;;5013541;28;20038;-64
2021/03/23 00:25:37;;;;;;;50.33;32.95;;;128.10;2252.80;;;;;;5013373;28;20026;-63
2021/03/23 00:28:05;;;;;;;52.47;34.38;;;128.20;2252.80;;;;;;5013582;28;20084;-62
2021/03/23 00:30:31;;;;;;;53.70;34.95;;;103.30;2227.20;;;;;;5013215;28;20468;-63
2021/03/23 00:32:56;;;;;;;60.40;37.50;;;128.10;2252.80;;;;;;5013331;28;20084;-64
2021/03/23 00:35:23;;;;;;;52.30;33.88;;;128.10;2252.80;;;;;;5013470;28;20029;-64
2021/03/23 00:37:52;;;;;;;49.72;31.30;;;128.10;2252.80;;;;;;5013240;28;20021;-66
2021/03/23 00:40:21;;;;;;;55.70;32.92;;;128.10;2252.80;;;;;;5013196;28;20083;-65
2021/03/23 00:42:48;;;;;;;53.92;31.58;;;128.10;2252.80;;;;;;4999700;28;20058;-65
2021/03/23 00:45:14;;;;;;;56.00;35.00;;;128.20;2252.80;;;;;;5013086;28;20026;-64
2021/03/23 00:47:40;;;;;;;44.67;29.50;;;128.30;2252.80;;;;;;5024948;28;20504;-61
2021/03/23 00:50:07;;;;;;;48.90;29.45;;;128.10;2252.80;;;;;;5015070;28;20061;-64
2021/03/23 00:52:33;;;;;;;49.00;31.42;;;128.10;2252.80;;;;;;5012845;28;20058;-64
2021/03/23 00:54:59;;;;;;;54.42;32.15;;;128.10;2201.60;;;;;;5012881;28;20057;-63
2021/03/23 00:57:24;;;;;;;66.60;33.22;;;128.10;2201.60;;;;;;5013131;28;20041;-63
2021/03/23 00:59:50;;;;;;;47.15;27.67;;;128.30;2176.00;;;;;;5012915;28;20021;-64
2021/03/23 01:02:16;;;;;;;49.70;27.40;;;128.10;2124.80;;;;;;5012933;28;20036;-63
2021/03/23 01:04:41;;;;;;;42.25;23.80;;;128.20;2124.80;;;;;;5012922;28;20112;-64
2021/03/23 01:07:07;;;;;;;38.72;24.10;;;128.10;2124.80;;;;;;5012688;28;20171;-64
2021/03/23 01:09:33;;;;;;;42.22;26.15;;;128.10;2124.80;;;;;;5012576;28;20615;-65
2021/03/23 01:11:59;;;;;;;46.60;27.10;;;103.30;2099.20;;;;;;5014743;28;20048;-65
2021/03/23 01:14:24;;;;;;;41.28;26.58;;;128.00;2150.40;;;;;;5024580;28;20053;-65
2021/03/23 01:16:50;;;;;;;44.78;25.48;;;128.10;2150.40;;;;;;5012631;28;20022;-66
2021/03/23 01:19:16;;;;;;;48.97;30.00;;;128.00;2252.80;;;;;;5012731;28;20381;-65
2021/03/23 01:21:42;;;;;;;56.90;31.38;;;;;;;;;;5012629;28;20034;-64
2021/03/23 01:24:08;;;;;;;52.20;28.85;;;;;;;;;;5012574;28;20041;-64
2021/03/23 01:26:34;;;;;;;42.88;24.90;;;103.20;2099.20;;;;;;5012647;28;20564;-65
2021/03/23 01:29:00;;;;;;;49.30;29.33;;;103.20;2073.60;;;;;;5012534;28;20108;-65
2021/03/23 01:31:26;;;;;;;50.78;28.77;;;103.20;2073.60;;;;;;5012599;28;20033;-65
2021/03/23 01:33:51;;;;;;;52.28;28.80;;;103.30;2022.40;;;;;;5012416;28;20026;-65
2021/03/23 01:36:17;;;;;;;47.42;29.52;;;103.20;2048.00;;;;;;5012580;28;20026;-65
2021/03/23 01:38:43;;;;;;;50.17;30.38;;;103.30;2048.00;;;;;;5012544;28;20041;-63
2021/03/23 01:41:08;;;;;;;48.90;28.40;;;128.00;2048.00;;;;;;5011948;28;20060;-64
2021/03/23 01:43:36;;;;;;;44.05;25.42;;;128.10;2073.60;;;;;;4999016;28;20084;-64
2021/03/23 01:46:34;;;;;;;44.25;25.13;;;128.00;2073.60;;;;;;5012471;28;20572;-63
2021/03/23 01:49:00;;;;;;;45.03;25.38;;;;;;;;;;5012303;28;20021;-63
2021/03/23 01:51:27;;;;;;;37.40;21.73;;;128.30;2022.40;;;;;;5012558;28;20538;-63
2021/03/23 01:54:02;;;;;;;35.05;21.60;;;128.10;2022.40;;;;;;5012567;28;20014;-63
2021/03/23 01:56:27;;;;;;;34.88;21.40;;;128.20;2022.40;;;;;;5012198;28;20037;-63
2021/03/23 01:58:55;;;;;;;34.40;19.65;;;;;;;;;;5012466;28;20014;-63
2021/03/23 02:01:21;;;;;;;34.88;20.80;;;;;;;;;;5012338;28;20376;-63
2021/03/23 02:03:48;;;;;;;30.73;18.52;;;;;;;;;;5011917;28;20041;-64
2021/03/23 02:06:47;;;;;;;34.35;20.02;;;;;;;;;;5012394;28;20049;-64
2021/03/23 02:09:19;;;;;;;32.45;20.73;;;;;;;;;;4971262;28;20042;-64
2021/03/23 02:11:48;;;;;;;31.02;19.35;;;;;;;;;;4974379;28;20054;-64
2021/03/23 02:14:15;;;;;;;31.30;19.50;;;;;;;;;;4974684;28;20178;-65
2021/03/23 02:16:42;;;;;;;32.78;20.48;;;;;;;;;;4974720;28;20033;-63
2021/03/23 02:19:09;;;;;;;36.15;20.42;;;;;;;;;;4974391;28;20030;-64
2021/03/23 02:21:34;;;;;;;33.58;20.80;;;128.10;1945.60;;;;;;4974529;28;20033;-64
2021/03/23 02:24:01;;;;;;;33.22;18.90;;;103.20;1945.60;;;;;;4974526;28;20106;-64
2021/03/23 02:26:31;;;;;;;32.03;18.83;;;103.20;1945.60;;;;;;4974607;28;20426;-63
2021/03/23 02:29:00;;;;;;;36.15;21.35;;;;;;;;;;4974216;28;20496;-65
2021/03/23 02:31:53;;;;;;;32.42;20.90;;;103.10;1996.80;;;;;;4974522;28;20042;-65
2021/03/23 02:34:21;;;;;;;38.70;23.05;;;;;;;;;;4972718;28;20398;-65
2021/03/23 02:36:49;;;;;;;35.60;23.15;;;;;;;;;;4974253;28;20581;-66
2021/03/23 02:39:17;;;;;;;32.08;20.45;;;;;;;;;;4973957;28;20129;-65
2021/03/23 02:41:43;;;;;;;38.08;21.75;;;;;;;;;;4974036;28;20035;-65
2021/03/23 02:44:09;;;;;;;31.08;19.48;;;103.30;2227.20;;;;;;4984239;28;20042;-65
2021/03/23 02:46:36;;;;;;;29.45;20.15;;;103.00;1971.20;;;;;;5013912;28;20022;-65
2021/03/23 02:49:02;;;;;;;30.02;18.13;;;103.10;1945.60;;;;;;5015095;28;20092;-65
2021/03/23 02:51:28;;;;;;;32.85;19.23;;;103.20;1920.00;;;;;;5015216;28;20029;-66
2021/03/23 02:53:54;;;;;;;30.40;19.80;;;103.30;1894.40;;;;;;5015183;28;20022;-65
2021/03/23 02:56:19;;;;;;;25.73;18.63;;;103.20;1894.40;;;;;;5014970;28;20433;-65
2021/03/23 02:58:45;;;;;;;24.52;16.10;;;103.20;1894.40;;;;;;5014915;28;20053;-65
2021/03/23 03:01:15;;;;;;;32.35;18.38;;;103.00;1920.00;;;;;;5015065;28;20148;-63
2021/03/23 03:03:41;;;;;;;29.20;17.42;;;103.00;1920.00;;;;;;5014801;28;20120;-63
2021/03/23 03:06:07;;;;;;;30.40;19.08;;;103.00;1920.00;;;;;;5024745;28;20029;-63
2021/03/23 03:08:34;;;;;;;30.42;18.88;;;102.90;1945.60;;;;;;5018783;28;20026;-62
2021/03/23 03:11:00;;;;;;;28.55;17.20;;;103.00;1945.60;;;;;;5014456;28;20406;-63
2021/03/23 03:13:27;;;;;;;23.17;15.77;;;103.00;1945.60;;;;;;5014845;28;20080;-62
2021/03/23 03:15:54;;;;;;;25.80;16.65;;;103.00;1945.60;;;;;;5014779;28;20538;-62
2021/03/23 03:18:22;;;;;;;26.40;16.70;;;103.00;1920.00;;;;;;5014793;28;20068;-64
2021/03/23 03:20:48;;;;;;;29.92;18.08;;;;;;;;;;5013544;28;20022;-64
2021/03/23 03:23:15;;;;;;;31.60;20.60;;;;;;;;;;5014406;28;20919;-65
2021/03/23 03:25:40;;;;;;;33.03;20.67;;;102.80;1996.80;;;;;;5014287;28;20033;-64
2021/03/23 03:28:09;;;;;;;35.38;22.85;;;102.80;1971.20;;;;;;5014607;28;20022;-64
2021/03/23 03:30:38;;;;;;;31.45;20.00;;;102.80;1971.20;;;;;;5014494;28;20033;-65
2021/03/23 03:33:08;;;;;;;31.00;20.38;;;103.00;1945.60;;;;;;5014496;28;20385;-63
2021/03/23 03:35:37;;;;;;;30.48;18.90;;;103.00;2227.20;;;;;;5014173;28;20036;-62
2021/03/23 03:38:05;;;;;;;29.08;18.88;;;102.90;1971.20;;;;;;5014370;28;20022;-65
2021/03/23 03:40:38;;;;;;;28.90;17.38;;;103.00;1945.60;;;;;;5014251;28;20779;-65
2021/03/23 03:43:04;;;;;;;26.63;17.17;;;;;;;;;;4996140;28;20493;-65
2021/03/23 03:45:30;;;;;;;27.70;16.88;;;102.70;1971.20;;;;;;5014075;28;20026;-65
2021/03/23 03:47:57;;;;;;;25.65;16.85;;;102.70;2227.20;;;;;;5013955;28;20112;-65
2021/03/23 03:50:25;;;;;;;27.42;16.00;;;102.70;1971.20;;;;;;5014140;28;20498;-64
2021/03/23 03:52:51;;;;;;;27.85;17.55;;;102.60;2227.20;;;;;;5014082;28;20488;-63
2021/03/23 03:55:20;;;;;;;30.70;21.08;;;102.60;2227.20;;;;;;5018421;28;20064;-64
2021/03/23 03:57:46;;;;;;;27.30;17.20;;;102.60;1996.80;;;;;;5022625;28;20060;-64
2021/03/23 04:00:16;;;;;;;26.70;16.92;;;102.60;1996.80;;;;;;5013962;28;20022;-64
2021/03/23 04:02:42;;;;;;;29.88;18.33;;;102.50;1996.80;;;;;;5013824;28;20045;-64
2021/03/23 04:05:14;;;;;;;21.17;14.55;;;102.60;1971.20;;;;;;5013657;28;20101;-64
2021/03/23 04:07:39;;;;;;;22.73;16.30;;;102.60;1971.20;;;;;;5013412;28;20029;-64
2021/03/23 04:10:06;;;;;;;27.55;20.52;;;102.70;1971.20;;;;;;5013350;28;20116;-63
2021/03/23 04:12:31;;;;;;;28.52;19.63;;;102.70;1971.20;;;;;;5013513;28;20473;-67
2021/03/23 04:14:57;;;;;;;29.40;22.83;;;102.70;1971.20;;;;;;5013624;28;20048;-65
2021/03/23 04:17:23;;;;;;;41.67;27.90;;;102.80;1945.60;;;;;;5013325;28;20025;-66
2021/03/23 04:19:48;;;;;;;60.97;36.17;;;102.80;1971.20;;;;;;5013459;28;20028;-66
2021/03/23 04:22:14;;;;;;;60.85;33.92;;;102.80;1971.20;;;;;;5013365;28;20495;-65
2021/03/23 04:24:40;;;;;;;57.05;34.65;;;102.90;1945.60;;;;;;5013232;28;20029;-66
2021/03/23 04:27:06;;;;;;;48.90;31.33;;;102.80;1971.20;;;;;;5013422;28;20096;-66
2021/03/23 04:29:32;;;;;;;42.08;25.35;;;102.80;1971.20;;;;;;5013371;28;20030;-63
2021/03/23 04:31:57;;;;;;;32.05;23.17;;;102.80;1945.60;;;;;;5013060;28;20113;-63
2021/03/23 04:34:23;;;;;;;27.65;19.15;;;102.80;1945.60;;;;;;5013103;28;20124;-63
2021/03/23 04:36:49;;;;;;;30.63;17.58;;;;;;;;;;5013383;28;20519;-63
2021/03/23 04:39:15;;;;;;;27.45;17.10;;;;;;;;;;5012962;28;20025;-63
2021/03/23 04:41:41;;;;;;;27.80;18.52;;;;;;;;;;5013008;28;20106;-64
2021/03/23 04:44:07;;;;;;;30.38;18.42;;;;;;;;;;5013101;28;20041;-66
2021/03/23 04:46:34;;;;;;;36.47;21.65;;;;;;;;;;5012988;28;20029;-65
2021/03/23 04:49:00;;;;;;;28.60;20.48;;;;;;;;;;5008320;28;20033;-65
2021/03/23 04:51:28;;;;;;;31.42;20.58;;;;;;;;;;5013125;28;20068;-64
2021/03/23 04:54:12;;;;;;;38.35;23.83;;;;;;;;;;5012941;28;20093;-65
2021/03/23 04:56:40;;;;;;;36.53;24.80;;;;;;;;;;5008833;28;20041;-64
2021/03/23 04:59:06;;;;;;;36.47;23.67;;;;;;;;;;5012913;28;20033;-64
2021/03/23 05:01:33;;;;;;;39.13;25.00;;;;;;;;;;5000532;28;20053;-64
2021/03/23 05:04:01;;;;;;;38.05;25.65;;;;;;;;;;5012804;28;20037;-65
2021/03/23 05:06:27;;;;;;;35.10;20.85;;;;;;;;;;5012411;28;20029;-65
2021/03/23 05:08:54;;;;;;;35.13;22.95;;;;;;;;;;5012648;28;20079;-64
2021/03/23 05:11:34;;;;;;;31.35;22.38;;;77.70;1996.80;;;;;;5001953;28;20035;-64
2021/03/23 05:14:01;;;;;;;36.80;24.15;;;77.60;2048.00;;;;;;5011261;28;20480;-64
2021/03/23 05:16:27;;;;;;;42.85;27.52;;;102.40;1971.20;;;;;;5003390;28;20100;-64
2021/03/23 05:18:53;;;;;;;39.22;25.23;;;77.70;1996.80;;;;;;4997486;28;20030;-64
2021/03/23 05:21:20;;;;;;;37.85;23.92;;;102.40;1971.20;;;;;;5005769;28;20101;-65
2021/03/23 05:23:46;;;;;;;43.75;26.98;;;77.70;1996.80;;;;;;4995910;28;20042;-62
2021/03/23 05:26:11;;;;;;;38.00;23.48;;;102.50;1971.20;;;;;;5007458;28;20034;-62
2021/03/23 05:28:37;;;;;;;34.55;22.25;;;102.50;1945.60;;;;;;5005886;28;20484;-62
2021/03/23 05:31:05;;;;;;;34.15;19.73;;;102.50;1945.60;;;;;;5003114;28;20022;-63
2021/03/23 05:33:33;;;;;;;48.67;29.65;;;102.40;1971.20;;;;;;5012347;28;20116;-66
2021/03/23 05:36:00;;;;;;;69.00;39.97;;;102.60;1996.80;;;;;;5012176;28;20022;-65
2021/03/23 05:38:28;;;;;;;47.83;28.60;;;102.40;2022.40;;;;;;5012315;28;20465;-65
2021/03/23 05:41:03;;;;;;;48.42;28.98;;;102.40;2048.00;;;;;;5011230;28;20156;-65
2021/03/23 05:43:47;;;;;;;42.92;28.27;;;102.40;2048.00;;;;;;4998475;28;20046;-65
2021/03/23 05:46:35;;;;;;;45.53;29.30;;;77.70;2048.00;;;;;;5016638;28;20360;-65
2021/03/23 05:49:06;;;;;;;48.78;29.65;;;102.40;2073.60;;;;;;5016288;28;20025;-65
2021/03/23 05:51:35;;;;;;;;;;;102.50;2048.00;;;;;;5016681;28;20480;-64
2021/03/23 05:54:36;;;;;;;39.38;25.17;;;102.40;2048.00;;;;;;5016429;28;19910;-65
2021/03/23 05:57:16;;;;;;;44.28;26.00;;;102.50;2022.40;;;;;;4974947;28;20156;-64
2021/03/23 06:00:00;;;;;;;52.40;32.42;;;102.70;2022.40;;;;;;4975180;28;20030;-64
2021/03/23 06:02:34;;;;;;;38.78;24.35;;;102.80;1996.80;;;;;;4974986;28;20043;-64
2021/03/23 06:05:00;;;;;;;31.10;21.52;;;102.90;1996.80;;;;;;4974776;28;20052;-65
2021/03/23 06:07:25;;;;;;;34.97;23.15;;;103.00;1971.20;;;;;;4974829;28;20070;-66
2021/03/23 06:09:51;;;;;;;29.45;20.17;;;102.80;2022.40;;;;;;4974602;28;20460;-65
2021/03/23 06:12:27;;;;;;;32.45;21.52;;;102.80;1996.80;;;;;;4974736;28;20038;-65
2021/03/23 06:15:09;;;;;;;32.45;20.52;;;102.80;2022.40;;;;;;4974817;28;20038;-65
2021/03/23 06:17:41;;;;;;;33.10;24.17;;;102.90;1996.80;;;;;;4974775;28;20494;-64
2021/03/23 06:20:21;;;;;;;46.58;29.33;;;103.00;1996.80;;;;;;4974561;28;20057;-64
2021/03/23 06:23:05;;;;;;;31.00;19.25;;;103.10;1971.20;;;;;;4974607;28;20514;-65
2021/03/23 06:25:47;;;;;;;25.90;15.85;;;103.10;1945.60;;;;;;4974304;28;20023;-65
2021/03/23 06:28:13;;;;;;;31.65;18.85;;;;;;;;;;4974404;28;20033;-64
2021/03/23 06:30:49;;;;;;;31.92;19.88;;;103.00;1894.40;;;;;;4974073;28;20031;-65
2021/03/23 06:33:20;;;;;;;29.27;19.17;;;103.00;1971.20;;;;;;4983514;28;20066;-64
2021/03/23 06:35:52;;;;;;;25.73;18.53;;;102.80;1971.20;;;;;;5011283;28;20107;-64
2021/03/23 06:38:32;;;;;;;28.52;18.58;;;102.80;1945.60;;;;;;5015332;28;20022;-65
2021/03/23 06:41:15;;;;;;;31.70;19.10;;;102.70;1945.60;;;;;;5015380;28;20038;-64
2021/03/23 06:43:45;;;;;;;30.98;19.88;;;102.90;1920.00;;;;;;5002546;28;20485;-64
2021/03/23 06:46:22;;;;;;;32.97;18.52;;;;;;;;;;5015145;28;20025;-65
2021/03/23 06:49:14;;;;;;;29.63;17.45;;;;;;;;;;5002552;28;20021;-64
2021/03/23 06:51:57;;;;;;;29.95;19.38;;;;;;;;;;5012727;28;20042;-64
2021/03/23 06:54:23;;;;;;;27.38;19.42;;;;;;;;;;5010402;28;20397;-65
2021/03/23 06:57:01;;;;;;;42.75;25.98;;;;;;;;;;5011939;28;20030;-65
2021/03/23 06:59:27;;;;;;;34.42;23.88;;;;;;;;;;5014987;28;20381;-65
2021/03/23 07:02:01;;;;;;;41.47;27.10;;;;;;;;;;5014627;28;20018;-65
2021/03/23 07:04:38;;;;;;;30.27;20.30;;;;;;;;;;5014848;28;20041;-64
2021/03/23 07:07:21;;;;;;;23.90;17.33;;;;;;;;;;5014839;28;20022;-65
2021/03/23 07:09:47;;;;;;;26.70;18.65;;;;;;;;;;5014650;28;20030;-65
2021/03/23 07:12:13;;;;;;;30.33;20.52;;;;;;;;;;5014609;28;20084;-65
2021/03/23 07:14:42;;;;;;;30.65;20.85;;;;;;;;;;5014538;28;20069;-65
2021/03/23 07:17:12;;;;;;;31.92;20.35;;;;;;;;;;5014513;28;20028;-65
2021/03/23 07:19:46;;;;;;;29.60;19.17;;;;;;;;;;5014803;28;20065;-65
2021/03/23 07:22:20;;;;;;;30.88;18.90;;;;;;;;;;5014279;28;20037;-65
2021/03/23 07:24:51;;;;;;;24.77;16.67;;;;;;;;;;5014825;28;20026;-65
2021/03/23 07:27:19;;;;;;;26.33;18.13;;;;;;;;;;5014636;28;20384;-65
2021/03/23 07:29:46;;;;;;;23.15;15.43;;;;;;;;;;5009852;28;20134;-65
2021/03/23 07:32:24;;;;;;;27.98;18.60;;;;;;;;;;5009146;28;20021;-65
2021/03/23 07:35:09;;;;;;;29.92;18.10;;;;;;;;;;5014326;28;20025;-65
2021/03/23 07:37:41;;;;;;;25.52;15.90;;;;;;;;;;5014158;28;20033;-64
2021/03/23 07:40:15;;;;;;;30.05;16.55;;;;;;;;;;5014247;28;20030;-65
2021/03/23 07:43:00;;;;;;;30.65;19.17;;;;;;;;;;5014042;28;20092;-65
2021/03/23 07:45:30;;;;;;;27.20;16.77;;;;;;;;;;5001825;28;20053;-64
2021/03/23 07:48:00;;;;;;;27.83;16.80;;;;;;;;;;5013918;28;20022;-65
2021/03/23 07:50:32;;;;;;;34.40;19.90;;;;;;;;;;5014111;28;20376;-65
2021/03/23 07:53:01;;;;;;;28.75;18.02;;;;;;;;;;5014018;28;20046;-65
2021/03/23 07:55:27;;;;;;;31.52;20.75;;;;;;;;;;5000100;28;20085;-64
2021/03/23 07:57:53;;;;;;;27.33;15.07;;;;;;;;;;5014021;28;20108;-65
2021/03/23 08:00:19;;;;;;;29.35;17.48;;;;;;;;;;5013584;28;20066;-65
2021/03/23 08:03:04;;;;;;;21.42;14.55;;;;;;;;;;5013704;28;20030;-65
2021/03/23 08:05:39;;;;;;;21.08;14.68;;;;;;;;;;5013437;28;20488;-65
2021/03/23 08:08:23;;;;;;;21.42;13.15;;;;;;;;;;5013030;28;20022;-65
2021/03/23 08:11:01;;;;;;;26.77;15.25;;;205.00;1612.80;;;;;;5013331;28;20045;-65
2021/03/23 08:13:36;;;;;;;17.75;11.65;;;204.90;1587.20;;;;;;5013190;28;20125;-65
2021/03/23 08:16:23;;;;;;;19.92;12.27;;;179.80;1638.40;;;;;;5013552;28;20022;-65
2021/03/23 08:19:16;;;;;;;22.27;14.82;;;179.70;1689.60;;;;;;5013357;28;20033;-65
2021/03/23 08:22:09;;;;;;;34.53;17.98;;;205.00;1638.40;;;;;;5013325;28;20026;-65
2021/03/23 08:24:43;;;;;;;34.90;20.98;;;205.20;1587.20;;;;;;5001142;28;20568;-64
2021/03/23 08:27:33;;;;;;;20.92;14.40;;;204.80;1612.80;;;;;;5013259;28;20121;-65
2021/03/23 08:30:20;;;;;;;21.60;14.88;;;205.40;1536.00;;;;;;5013360;28;20026;-64
2021/03/23 08:33:23;;;;;;;31.05;16.67;;;205.20;1536.00;;;;;;5013104;28;20045;-64
2021/03/23 08:36:01;;;;;;;28.20;14.93;;;205.40;1536.00;;;;;;5013062;28;20026;-65
2021/03/23 08:38:45;;;;;;;21.75;13.88;;;205.00;1561.60;;;;;;5013245;28;20030;-64
2021/03/23 08:41:34;;;;;;;14.48;9.30;;;204.90;1587.20;;;;;;5012709;28;20022;-64
2021/03/23 08:44:00;;;;;;;15.82;9.48;;;204.90;1561.60;;;;;;5002756;28;20033;-66
2021/03/23 08:46:30;;;;;;;25.75;16.20;;;205.00;1561.60;;;;;;5012970;28;20021;-64
2021/03/23 08:49:02;;;;;;;25.23;13.48;;;205.10;1587.20;;;;;;5013002;28;20030;-65
2021/03/23 08:51:29;;;;;;;;;;;230.40;1766.40;;;;;;5013161;28;20096;-65
2021/03/23 08:54:00;;;;;;;30.00;17.10;;;230.90;1536.00;;;;;;5013080;28;19912;-65
2021/03/23 08:56:26;;;;;;;;;;;;;;;;;;5013213;28;20018;-65
2021/03/23 08:58:55;;;;;;;43.85;22.95;;;231.30;1331.20;;;;;;5012794;28;19924;-65
2021/03/23 09:01:29;;;;;;;29.30;12.05;;;231.20;1331.20;;;;;;5012698;28;20025;-65
2021/03/23 09:04:23;;;;;;;26.05;15.90;;;256.50;1254.40;;;;;;5012434;28;20073;-65
2021/03/23 09:07:00;;;;;;;36.40;19.63;;;256.80;1254.40;;;;;;5012457;28;20024;-65
2021/03/23 09:09:28;;;;;;;23.95;13.55;;;281.80;1254.40;;;;;;5012514;28;20030;-65
2021/03/23 09:12:24;;;;;;;29.38;17.02;;;282.10;1203.20;;;;;;5012413;28;20047;-65
2021/03/23 09:15:02;;;;;;;42.15;21.00;;;282.40;1382.40;;;;;;5012510;28;20069;-65
2021/03/23 09:17:55;;;;;;;35.05;18.48;;;307.20;1126.40;;;;;;5012289;28;20432;-64
2021/03/23 09:23:27;;;;;;;31.52;16.17;;;307.20;1203.20;;;;;;5012272;28;20099;-65
2021/03/23 09:26:23;;;;;;;24.20;15.10;;;307.20;1280.00;;;;;;4992390;28;20089;-65
2021/03/23 09:28:53;;;;;;;29.40;16.95;;;282.50;1203.20;;;;;;5012160;28;20034;-64
2021/03/23 09:31:24;;;;;;;29.27;17.35;;;282.20;1126.40;;;;;;5012350;28;20021;-64
2021/03/23 09:33:55;;;;;;;41.08;22.90;;;307.60;1075.20;;;;;;5012514;28;20384;-64
2021/03/23 09:36:36;;;;;;;41.27;21.03;;;307.80;1049.60;;;;;;4999223;28;20076;-65
2021/03/23 09:39:17;;;;;;;33.67;22.25;;;384.70;870.40;;;;;;5012062;28;20267;-65
2021/03/23 09:41:52;;;;;;;35.58;21.98;;;410.00;819.20;;;;;;5007704;28;20026;-64
2021/03/23 09:44:18;;;;;;;42.55;25.20;;;384.30;896.00;;;;;;5004569;28;20096;-65
2021/03/23 09:46:49;;;;;;;39.33;19.85;;;409.80;819.20;;;;;;5012150;28;20014;-64
2021/03/23 09:49:46;;;;;;;29.23;22.48;;;487.30;665.60;;;;;;5007833;28;20027;-64
2021/03/23 09:52:17;;;;;;;31.95;18.00;;;461.50;691.20;;;;;;4999383;28;20014;-65
2021/03/23 09:54:46;;;;;;;34.25;17.77;;;410.20;793.60;;;;;;5012108;28;20428;-65
2021/03/23 09:57:14;;;;;;;24.10;13.45;;;461.00;768.00;;;;;;4998837;28;20540;-65
2021/03/23 09:59:49;;;;;;;22.52;12.15;;;538.50;563.20;;;;;;5012288;28;20378;-64
2021/03/23 10:02:17;;;;;;;14.70;7.90;;;640.10;460.80;;;;;;5012281;28;20022;-64
2021/03/23 10:04:44;;;;;;;40.42;21.95;;;512.60;588.80;;;;;;5012131;28;20037;-63
2021/03/23 10:07:38;;;;;;;28.20;13.73;;;487.20;640.00;;;;;;5011897;28;20036;-62
2021/03/23 10:10:32;;;;;;;33.97;15.55;;;538.20;588.80;;;;;;5010283;28;20042;-62
2021/03/23 10:13:15;;;;;;;46.97;26.67;;;461.50;691.20;;;;;;5012326;28;20034;-65
2021/03/23 10:15:43;;;;;;;38.92;29.42;;;410.50;819.20;;;;;;5010495;28;20022;-65
2021/03/23 10:18:11;;;;;;;47.47;30.90;;;487.10;691.20;;;;;;5012236;28;20030;-65
2021/03/23 10:20:37;;;;;;;29.55;20.83;;;435.50;819.20;;;;;;5011703;28;20093;-65
2021/03/23 10:23:04;;;;;;;38.58;28.13;;;384.00;896.00;;;;;;5011813;28;20161;-65
2021/03/23 10:25:30;;;;;;;37.63;23.17;;;358.60;998.40;;;;;;5011776;28;20025;-65
2021/03/23 10:28:04;;;;;;;71.75;43.75;;;358.40;998.40;;;;;;5011788;28;20026;-65
2021/03/23 10:30:37;;;;;;;66.60;36.92;;;384.60;870.40;;;;;;5012686;28;20022;-65
2021/03/23 10:33:17;;;;;;;35.17;25.88;;;359.30;921.60;;;;;;5015351;28;20097;-64
2021/03/23 10:35:43;;;;;;;34.13;21.17;;;358.80;947.20;;;;;;5015157;28;20022;-64
2021/03/23 10:38:22;;;;;;;95.55;45.63;;;358.80;947.20;;;;;;5015275;28;20018;-64
2021/03/23 10:40:52;;;;;;;36.08;21.63;;;358.70;1228.80;;;;;;5015465;28;20069;-65
2021/03/23 10:43:32;;;;;;;43.83;26.52;;;333.70;998.40;;;;;;5001241;28;20069;-64
2021/03/23 10:46:00;;;;;;;23.33;17.83;;;461.40;742.40;;;;;;5015439;28;20053;-65
2021/03/23 10:48:39;;;;;;;35.08;21.50;;;512.30;640.00;;;;;;5014996;28;20490;-65
2021/03/23 10:51:21;;;;;;;26.58;16.85;;;461.10;742.40;;;;;;5010569;28;20058;-64
2021/03/23 10:54:10;;;;;;;35.63;19.70;;;435.20;768.00;;;;;;5001770;28;20021;-65
2021/03/23 10:56:43;;;;;;;31.02;14.85;;;384.70;819.20;;;;;;5005681;28;20401;-65
2021/03/23 10:59:30;;;;;;;25.92;16.35;;;410.10;819.20;;;;;;5014848;28;20468;-64
2021/03/23 11:01:57;;;;;;;29.55;19.70;;;512.80;640.00;;;;;;5014794;28;20026;-65
2021/03/23 11:04:23;;;;;;;22.08;14.35;;;563.40;588.80;;;;;;5015039;28;20379;-65
2021/03/23 11:06:48;;;;;;;12.00;8.55;;;564.10;563.20;;;;;;5014655;28;20026;-65
2021/03/23 11:09:17;;;;;;;26.58;13.02;;;537.90;588.80;;;;;;5014793;28;20022;-65
2021/03/23 11:11:43;;;;;;;51.85;22.48;;;486.70;665.60;;;;;;5014472;28;20053;-65
2021/03/23 11:14:10;;;;;;;55.45;25.92;;;460.80;742.40;;;;;;5014438;28;20499;-65
2021/03/23 11:16:38;;;;;;;34.45;17.75;;;487.00;640.00;;;;;;5014653;28;20030;-65
2021/03/23 11:19:15;;;;;;;52.10;29.92;;;537.70;588.80;;;;;;5014480;28;20041;-65
2021/03/23 11:21:44;;;;;;;17.35;12.27;;;564.00;614.40;;;;;;5014375;28;20026;-65
2021/03/23 11:24:10;;;;;;;30.35;14.63;;;564.10;614.40;;;;;;5009650;28;20035;-65
2021/03/23 11:26:38;;;;;;;24.73;15.07;;;512.80;640.00;;;;;;5004669;28;20028;-65
2021/03/23 11:29:05;;;;;;;15.52;12.05;;;486.90;691.20;;;;;;5014126;28;20033;-64
2021/03/23 11:31:34;;;;;;;25.50;13.68;;;461.30;716.80;;;;;;5009732;28;20077;-65
2021/03/23 11:34:00;;;;;;;24.88;16.40;;;435.40;768.00;;;;;;5009482;28;20408;-64
2021/03/23 11:36:28;;;;;;;41.85;20.70;;;435.70;742.40;;;;;;5013930;28;20543;-65
2021/03/23 11:38:54;;;;;;;20.17;13.82;;;461.50;742.40;;;;;;5013834;28;20030;-64
2021/03/23 11:41:26;;;;;;;29.17;16.73;;;537.90;614.40;;;;;;5012064;28;20476;-65
2021/03/23 11:43:56;;;;;;;;;;;512.40;665.60;;;;;;5002453;28;20046;-64
2021/03/23 11:46:44;;;;;;;23.27;14.25;;;486.50;691.20;;;;;;5013998;28;19945;-64
2021/03/23 11:49:26;;;;;;;26.40;17.88;;;435.60;768.00;;;;;;5009197;28;20122;-64
2021/03/23 11:51:54;;;;;;;27.48;21.80;;;409.70;844.80;;;;;;5011854;28;20412;-65
2021/03/23 11:54:20;;;;;;;52.58;37.83;;;409.90;844.80;;;;;;5013727;28;20029;-65
2021/03/23 11:56:46;;;;;;;37.20;26.08;;;461.50;768.00;;;;;;5013630;28;20026;-64
2021/03/23 11:59:12;;;;;;;41.63;34.42;;;537.60;614.40;;;;;;5013619;28;20026;-64
2021/03/23 12:01:38;;;;;;;53.65;41.67;;;538.00;614.40;;;;;;5013930;28;20428;-64
2021/03/23 12:04:04;;;;;;;30.17;27.00;;;486.90;665.60;;;;;;5013852;28;20086;-65
2021/03/23 12:07:05;;;;;;;40.80;22.60;;;461.60;691.20;;;;;;5013581;28;20054;-64
2021/03/23 12:09:42;;;;;;;31.25;18.98;;;435.20;742.40;;;;;;4962046;28;20133;-65
2021/03/23 12:12:14;;;;;;;43.00;27.08;;;436.10;716.80;;;;;;4972190;28;20050;-65
2021/03/23 12:15:00;;;;;;;27.25;20.40;;;486.70;665.60;;;;;;4972229;28;20034;-64
2021/03/23 12:17:28;;;;;;;23.15;15.00;;;537.60;614.40;;;;;;4972014;28;20504;-65
2021/03/23 12:19:56;;;;;;;22.80;16.35;;;538.20;588.80;;;;;;4956115;28;20498;-63
2021/03/23 12:22:22;;;;;;;31.83;17.25;;;512.00;588.80;;;;;;4972030;28;20085;-64
2021/03/23 12:24:49;;;;;;;22.73;16.50;;;461.40;691.20;;;;;;4972036;28;20035;-64
2021/03/23 12:27:15;;;;;;;37.42;23.30;;;435.90;691.20;;;;;;4971934;28;20038;-64
2021/03/23 12:29:41;;;;;;;31.90;21.02;;;410.50;742.40;;;;;;4971755;28;20086;-64
2021/03/23 12:32:10;;;;;;;37.22;20.50;;;409.60;819.20;;;;;;4971801;28;20150;-63
2021/03/23 12:34:36;;;;;;;21.70;15.55;;;384.40;793.60;;;;;;4971989;28;20027;-64
2021/03/23 12:37:01;;;;;;;23.95;14.93;;;384.10;819.20;;;;;;4971769;28;20434;-63
2021/03/23 12:39:27;;;;;;;34.33;18.58;;;359.00;819.20;;;;;;4971515;28;20034;-63
2021/03/23 12:41:53;;;;;;;26.33;17.13;;;359.00;819.20;;;;;;4965574;28;20031;-63
2021/03/23 12:44:21;;;;;;;39.33;18.70;;;384.00;793.60;;;;;;4963989;28;20422;-63
2021/03/23 12:46:47;;;;;;;32.15;16.83;;;359.10;819.20;;;;;;4995339;28;20033;-63
2021/03/23 12:49:12;;;;;;;36.17;20.10;;;358.90;844.80;;;;;;5012888;28;20038;-63
2021/03/23 12:51:51;;;;;;;28.80;17.08;;;333.70;921.60;;;;;;5012745;28;20029;-63
2021/03/23 12:54:35;;;;;;;29.40;16.38;;;333.30;921.60;;;;;;5012503;28;20022;-63